Time;durP1;ratioP1;P1;durP2;ratioP2;P2;SDS_P1;SDS_P2;PMS_P1;PMS_P2;Temp;Humidity;BMP_temperature;BMP_pressure;BME280_temperature;BME280_humidity;BME280_pressure;Samples;Min_cycle;Max_cycle;Signal;HPM_P1;HPM_P2
2022/09/27 00:03:18;;;;;;;4.88;3.20;;;;;12.70;94692.00;;;;8397508;28;20649;-70
2022/09/27 00:07:21;;;;;;;4.75;3.35;;;;;12.70;94682.00;;;;8397434;28;20234;-70
2022/09/27 00:11:28;;;;;;;6.30;3.25;;;;;12.70;94676.00;;;;8397258;28;20227;-70
2022/09/27 00:15:31;;;;;;;6.70;3.22;;;;;12.60;94663.00;;;;8397716;28;20267;-69
2022/09/27 00:19:36;;;;;;;6.22;3.03;;;;;12.70;94667.00;;;;8395260;28;20639;-70
2022/09/27 00:23:40;;;;;;;4.05;2.70;;;;;12.70;94662.00;;;;8397164;28;20219;-69
2022/09/27 00:27:44;;;;;;;3.00;2.80;;;;;12.60;94656.00;;;;8396815;28;20221;-69
2022/09/27 00:31:47;;;;;;;4.53;2.92;;;;;12.40;94649.00;;;;8396752;28;20242;-68
2022/09/27 00:35:52;;;;;;;4.18;2.95;;;;;12.20;94649.00;;;;8396982;28;20676;-63
2022/09/27 00:39:55;;;;;;;2.85;2.58;;;;;12.00;94644.00;;;;8396719;28;20270;-64
2022/09/27 00:44:01;;;;;;;2.88;2.67;;;;;11.90;94639.00;;;;8396435;28;20263;-65
2022/09/27 00:48:05;;;;;;;3.03;2.72;;;;;11.80;94634.00;;;;8362826;28;20543;-65
2022/09/27 00:52:14;;;;;;;3.20;2.97;;;;;11.80;94622.00;;;;8363461;28;20225;-66
2022/09/27 00:56:20;;;;;;;3.45;2.95;;;;;11.70;94621.00;;;;8362815;28;20670;-66
2022/09/27 01:00:23;;;;;;;3.38;3.08;;;;;11.60;94617.00;;;;8362586;28;20233;-66
2022/09/27 01:04:29;;;;;;;4.07;2.70;;;;;11.60;94611.00;;;;8362118;28;20231;-66
2022/09/27 01:08:34;;;;;;;5.00;3.03;;;;;11.50;94615.00;;;;8362328;28;20249;-66
2022/09/27 01:12:45;;;;;;;3.58;3.08;;;;;11.50;94615.00;;;;8395428;28;20217;-66
2022/09/27 01:16:58;;;;;;;5.85;2.83;;;;;11.40;94605.00;;;;8395593;28;20216;-66
2022/09/27 01:21:24;;;;;;;3.53;3.03;;;;;11.40;94602.00;;;;8395508;28;20261;-66
2022/09/27 01:25:53;;;;;;;4.00;3.05;;;;;11.40;94609.00;;;;8395451;28;20556;-66
2022/09/27 01:30:18;;;;;;;3.38;3.08;;;;;11.40;94602.00;;;;8371760;28;20228;-66
2022/09/27 01:34:27;;;;;;;5.18;3.00;;;;;11.40;94602.00;;;;8366127;28;20233;-67
2022/09/27 01:38:41;;;;;;;3.27;2.90;;;;;11.40;94583.00;;;;8361972;28;20221;-67
2022/09/27 01:42:48;;;;;;;5.07;3.00;;;;;11.30;94588.00;;;;8353667;28;20228;-67
2022/09/27 01:46:56;;;;;;;3.55;3.10;;;;;11.30;94588.00;;;;8361608;28;20592;-67
2022/09/27 01:51:04;;;;;;;4.53;3.17;;;;;11.30;94579.00;;;;8362204;28;20233;-68
2022/09/27 01:55:12;;;;;;;4.40;2.80;;;;;11.30;94570.00;;;;8365256;28;20228;-68
2022/09/27 01:59:18;;;;;;;4.13;3.30;;;;;11.30;94574.00;;;;8361601;28;20584;-68
2022/09/27 02:03:26;;;;;;;4.70;3.30;;;;;11.30;94559.00;;;;8360911;28;20233;-69
2022/09/27 02:07:36;;;;;;;3.92;2.88;;;;;11.30;94561.00;;;;8361553;28;20228;-69
2022/09/27 02:11:43;;;;;;;9.38;3.17;;;;;11.30;94553.00;;;;8390891;28;20225;-69
2022/09/27 02:15:54;;;;;;;4.82;3.22;;;;;11.30;94548.00;;;;8394169;28;20220;-69
2022/09/27 02:20:03;;;;;;;3.90;3.38;;;;;11.30;94550.00;;;;8394037;28;20212;-68
2022/09/27 02:24:09;;;;;;;4.70;3.07;;;;;11.30;94550.00;;;;8369245;28;20231;-69
2022/09/27 02:28:23;;;;;;;6.63;3.25;;;;;11.30;94537.00;;;;8361235;28;20666;-67
2022/09/27 02:32:28;;;;;;;4.33;2.73;;;;;11.20;94535.00;;;;8360811;28;20224;-66
2022/09/27 02:36:32;;;;;;;3.65;2.78;;;;;11.30;94534.00;;;;8360890;28;20225;-67
2022/09/27 02:40:43;;;;;;;4.60;2.90;;;;;11.30;94527.00;;;;8361476;28;20232;-67
2022/09/27 02:44:46;;;;;;;3.00;2.58;;;;;11.20;94523.00;;;;8397319;28;20614;-67
2022/09/27 02:48:57;;;;;;;5.00;2.63;;;;;11.20;94527.00;;;;8400044;28;20224;-68
2022/09/27 02:53:10;;;;;;;4.13;2.63;;;;;11.20;94526.00;;;;8399919;28;20250;-71
2022/09/27 02:57:28;;;;;;;6.72;3.03;;;;;11.20;94510.00;;;;8399175;28;20273;-69
2022/09/27 03:01:41;;;;;;;3.55;2.47;;;;;11.20;94511.00;;;;8405512;22;20421;-69
2022/09/27 03:05:49;;;;;;;5.35;2.70;;;;;11.20;94503.00;;;;8314964;28;20224;-70
2022/09/27 03:09:54;;;;;;;3.85;2.40;;;;;11.20;94510.00;;;;8341816;28;20228;-69
2022/09/27 03:13:57;;;;;;;5.93;2.30;;;;;11.20;94497.00;;;;8325606;28;20233;-72
2022/09/27 03:18:11;;;;;;;6.50;2.40;;;;;11.20;94494.00;;;;8321628;28;20322;-72
2022/09/27 03:22:14;;;;;;;2.37;2.17;;;;;11.20;94505.00;;;;8299454;28;20257;-73
2022/09/27 03:26:19;;;;;;;2.33;2.13;;;;;11.20;94506.00;;;;8321509;28;20240;-71
2022/09/27 03:30:22;;;;;;;3.80;2.20;;;;;11.20;94501.00;;;;8306119;28;20221;-74
2022/09/27 03:34:25;;;;;;;3.92;1.90;;;;;11.20;94497.00;;;;8339373;28;20589;-76
2022/09/27 03:38:28;;;;;;;4.38;2.05;;;;;11.30;94498.00;;;;8352946;28;20245;-73
2022/09/27 03:42:33;;;;;;;6.07;2.15;;;;;11.20;94494.00;;;;8350194;28;20238;-74
2022/09/27 03:46:37;;;;;;;2.47;1.67;;;;;11.20;94492.00;;;;8351995;28;20697;-72
2022/09/27 03:50:40;;;;;;;3.38;1.63;;;;;11.20;94480.00;;;;8351830;28;20220;-73
2022/09/27 03:54:43;;;;;;;1.98;1.80;;;;;11.10;94481.00;;;;8329520;28;20231;-72
2022/09/27 03:58:48;;;;;;;2.00;1.90;;;;;11.10;94476.00;;;;8312529;28;20224;-72
2022/09/27 04:02:51;;;;;;;2.83;2.00;;;;;11.10;94466.00;;;;8301514;28;20253;-71
2022/09/27 04:06:55;;;;;;;1.92;1.83;;;;;11.10;94463.00;;;;8292138;28;20311;-71
2022/09/27 04:10:59;;;;;;;1.88;1.77;;;;;11.10;94470.00;;;;8318561;28;20221;-70
2022/09/27 04:15:04;;;;;;;2.03;1.83;;;;;11.10;94461.00;;;;8285425;28;20345;-69
2022/09/27 04:19:08;;;;;;;1.67;1.60;;;;;11.00;94460.00;;;;8300670;28;20234;-69
2022/09/27 04:23:12;;;;;;;2.63;2.00;;;;;11.10;94461.00;;;;8283632;28;20276;-69
2022/09/27 04:27:15;;;;;;;1.77;1.67;;;;;11.10;94467.00;;;;8284981;28;20250;-69
2022/09/27 04:31:20;;;;;;;2.43;2.00;;;;;11.10;94464.00;;;;8293004;28;20258;-67
2022/09/27 04:39:44;;;;;;;2.30;2.05;;;;;11.10;94467.00;;;;8315926;28;20221;-66
2022/09/27 04:43:47;;;;;;;1.90;1.80;;;;;11.10;94454.00;;;;8303865;28;20230;-67
2022/09/27 04:47:52;;;;;;;1.98;1.83;;;;;11.10;94456.00;;;;8278393;28;20583;-66
2022/09/27 04:51:56;;;;;;;1.80;1.70;;;;;11.10;94452.00;;;;8313604;28;20223;-67
2022/09/27 04:56:04;;;;;;;1.67;1.60;;;;;11.10;94464.00;;;;8286754;28;20288;-67
2022/09/27 05:00:09;;;;;;;1.33;1.30;;;;;11.10;94464.00;;;;8294617;28;20225;-67
2022/09/27 05:04:14;;;;;;;1.55;1.50;;;;;11.10;94471.00;;;;8290550;28;20230;-67
2022/09/27 05:08:18;;;;;;;4.63;1.90;;;;;11.10;94475.00;;;;8283700;28;20535;-68
2022/09/27 05:12:21;;;;;;;2.43;1.90;;;;;11.10;94479.00;;;;8300956;28;20241;-67
2022/09/27 05:16:24;;;;;;;6.10;2.30;;;;;11.10;94485.00;;;;8306604;28;20237;-66
2022/09/27 05:20:32;;;;;;;2.50;1.60;;;;;11.10;94487.00;;;;8283481;28;20223;-67
2022/09/27 05:24:37;;;;;;;2.22;2.00;;;;;11.20;94478.00;;;;8305738;28;20231;-66
2022/09/27 05:28:42;;;;;;;2.70;2.00;;;;;11.10;94491.00;;;;8283727;28;20229;-68
2022/09/27 05:32:47;;;;;;;4.13;2.10;;;;;11.10;94492.00;;;;8280115;28;20627;-68
2022/09/27 05:36:52;;;;;;;1.83;1.73;;;;;11.10;94485.00;;;;8282785;28;20596;-67
2022/09/27 05:40:55;;;;;;;3.13;1.70;;;;;11.10;94496.00;;;;8287094;28;20713;-66
2022/09/27 05:44:58;;;;;;;1.70;1.60;;;;;11.10;94504.00;;;;8285039;28;20317;-68
2022/09/27 05:49:02;;;;;;;1.80;1.70;;;;;11.10;94513.00;;;;8283017;28;20247;-66
2022/09/27 05:53:07;;;;;;;1.80;1.70;;;;;11.20;94511.00;;;;8294372;28;20594;-66
2022/09/27 05:57:10;;;;;;;1.75;1.60;;;;;11.20;94522.00;;;;8306813;28;20595;-67
2022/09/27 06:01:14;;;;;;;3.53;1.50;;;;;11.10;94513.00;;;;8298521;28;20233;-65
2022/09/27 06:05:17;;;;;;;1.67;1.45;;;;;11.10;94514.00;;;;8299033;28;20823;-67
2022/09/27 06:09:22;;;;;;;1.48;1.38;;;;;10.90;94525.00;;;;8305549;28;20306;-67
2022/09/27 06:13:25;;;;;;;2.45;1.20;;;;;10.80;94522.00;;;;8309563;28;20231;-66
2022/09/27 06:17:28;;;;;;;1.20;1.20;;;;;10.70;94525.00;;;;8306522;28;20580;-66
2022/09/27 06:21:32;;;;;;;1.95;1.20;;;;;10.60;94530.00;;;;8312284;28;20224;-67
2022/09/27 06:25:36;;;;;;;1.30;1.20;;;;;10.60;94542.00;;;;8312182;28;20305;-67
2022/09/27 06:29:40;;;;;;;3.10;1.17;;;;;10.60;94541.00;;;;8311589;28;20640;-67
2022/09/27 06:33:43;;;;;;;4.80;1.30;;;;;10.80;94554.00;;;;8313907;28;20683;-65
2022/09/27 06:37:46;;;;;;;3.25;1.50;;;;;11.10;94558.00;;;;8299745;28;20682;-67
2022/09/27 06:41:56;;;;;;;1.95;1.20;;;;;11.30;94550.00;;;;8290327;28;20726;-66
2022/09/27 06:46:03;;;;;;;1.67;1.30;;;;;11.40;94555.00;;;;8289661;28;20293;-67
2022/09/27 06:50:07;;;;;;;4.20;1.40;;;;;11.60;94559.00;;;;8287674;28;20224;-66
2022/09/27 06:54:10;;;;;;;2.90;1.23;;;;;11.70;94572.00;;;;8267705;28;20689;-67
2022/09/27 07:02:37;;;;;;;3.70;1.30;;;;;11.90;94582.00;;;;8287836;28;20233;-67
2022/09/27 07:06:40;;;;;;;2.67;1.35;;;;;11.80;94585.00;;;;8294641;28;20872;-68
2022/09/27 07:10:43;;;;;;;2.80;2.42;;;;;11.80;94596.00;;;;8279961;28;20238;-67
2022/09/27 07:14:48;;;;;;;3.95;2.30;;;;;11.70;94594.00;;;;8290661;28;20226;-67
2022/09/27 07:18:51;;;;;;;4.32;1.95;;;;;11.70;94600.00;;;;8302003;28;20223;-68
2022/09/27 07:22:55;;;;;;;4.18;3.30;;;;;11.60;94609.00;;;;8273338;28;20226;-67
2022/09/27 07:26:58;;;;;;;4.47;2.38;;;;;11.40;94610.00;;;;8276489;28;20230;-65
2022/09/27 07:31:03;;;;;;;6.07;4.03;;;;;11.40;94611.00;;;;8281136;28;20222;-67
2022/09/27 07:35:08;;;;;;;9.90;3.80;;;;;11.50;94617.00;;;;8279561;28;20231;-67
2022/09/27 07:39:11;;;;;;;8.43;3.45;;;;;11.70;94608.00;;;;8293086;28;20678;-67
2022/09/27 07:43:15;;;;;;;11.25;3.55;;;;;11.90;94618.00;;;;8301891;28;20915;-68
2022/09/27 07:47:20;;;;;;;1.67;1.58;;;;;12.10;94607.00;;;;8279383;28;20234;-68
2022/09/27 07:51:23;;;;;;;9.50;4.85;;;;;12.10;94625.00;;;;8276899;28;20272;-69
2022/09/27 07:55:26;;;;;;;11.25;5.05;;;;;12.20;94617.00;;;;8290033;28;20227;-68
2022/09/27 07:59:29;;;;;;;6.93;4.60;;;;;12.40;94624.00;;;;8301689;28;20273;-68
2022/09/27 08:03:34;;;;;;;5.05;2.92;;;;;12.50;94626.00;;;;8279139;28;22034;-69
2022/09/27 08:07:38;;;;;;;1.17;1.00;;;;;12.60;94624.00;;;;8283027;28;20229;-72
2022/09/27 08:11:43;;;;;;;4.50;3.28;;;;;12.70;94645.00;;;;8289232;28;20239;-69
2022/09/27 08:15:47;;;;;;;9.20;3.03;;;;;12.80;94642.00;;;;8292076;28;20583;-67
2022/09/27 08:19:52;;;;;;;2.15;1.15;;;;;12.70;94646.00;;;;8277873;28;20704;-68
2022/09/27 08:23:55;;;;;;;2.60;1.90;;;;;12.80;94653.00;;;;8273691;28;20233;-68
2022/09/27 08:28:03;;;;;;;1.48;1.30;;;;;12.70;94663.00;;;;8292541;28;20224;-70
2022/09/27 08:32:06;;;;;;;4.70;2.63;;;;;12.50;94663.00;;;;8269925;28;20223;-68
2022/09/27 08:36:14;;;;;;;1.85;1.10;;;;;12.30;94672.00;;;;8293833;28;20268;-69
2022/09/27 08:40:22;;;;;;;1.00;1.00;;;;;12.20;94681.00;;;;8309547;28;20256;-69
2022/09/27 08:44:37;;;;;;;0.80;0.80;;;;;12.20;94697.00;;;;8311993;28;20225;-67
2022/09/27 08:48:41;;;;;;;1.30;1.25;;;;;12.50;94701.00;;;;8311493;28;20236;-67
2022/09/27 08:52:50;;;;;;;1.40;1.30;;;;;12.80;94701.00;;;;8298681;28;20237;-67
2022/09/27 08:56:58;;;;;;;7.57;2.30;;;;;13.20;94696.00;;;;8276847;28;20220;-67
2022/09/27 09:01:03;;;;;;;1.15;1.13;;;;;13.50;94719.00;;;;8275174;28;20871;-70
2022/09/27 09:05:12;;;;;;;1.42;1.10;;;;;13.50;94708.00;;;;8288016;28;20338;-70
2022/09/27 09:09:26;;;;;;;1.45;1.35;;;;;13.40;94719.00;;;;8276094;28;20461;-69
2022/09/27 09:13:40;;;;;;;1.20;1.10;;;;;13.50;94714.00;;;;8298249;28;20229;-70
2022/09/27 09:17:57;;;;;;;1.00;1.00;;;;;13.50;94708.00;;;;8297709;28;20236;-74
2022/09/27 09:22:18;;;;;;;1.80;1.40;;;;;13.50;94727.00;;;;8271422;28;20282;-70
2022/09/27 09:26:32;;;;;;;0.90;0.90;;;;;13.60;94714.00;;;;8295052;28;20673;-71
2022/09/27 09:30:43;;;;;;;3.58;1.10;;;;;13.60;94715.00;;;;8271037;28;20260;-72
2022/09/27 09:34:51;;;;;;;0.90;0.90;;;;;13.60;94715.00;;;;8274978;28;20231;-72
2022/09/27 09:38:59;;;;;;;0.90;0.90;;;;;13.60;94726.00;;;;8270221;28;20279;-72
2022/09/27 09:43:10;;;;;;;0.95;0.95;;;;;13.60;94732.00;;;;8267342;28;20240;-71
2022/09/27 09:47:34;;;;;;;1.25;1.20;;;;;13.70;94734.00;;;;8265642;28;20228;-75
2022/09/27 09:51:42;;;;;;;1.10;1.10;;;;;14.40;94725.00;;;;8294972;28;20228;-73
2022/09/27 09:55:51;;;;;;;1.40;1.30;;;;;14.80;94733.00;;;;8285843;28;20571;-73
2022/09/27 10:00:01;;;;;;;5.18;1.50;;;;;14.60;94735.00;;;;8306095;28;20652;-68
2022/09/27 10:04:04;;;;;;;3.50;1.23;;;;;13.60;94735.00;;;;8263376;28;1237863;-70
2022/09/27 10:08:13;;;;;;;2.28;1.42;;;;;13.00;94731.00;;;;8308396;28;20235;-67
2022/09/27 10:12:16;;;;;;;1.10;1.10;;;;;13.10;94746.00;;;;8301542;28;20232;-70
2022/09/27 10:16:22;;;;;;;1.00;1.00;;;;;13.10;94743.00;;;;8300829;28;20237;-69
2022/09/27 10:20:31;;;;;;;2.03;1.40;;;;;13.30;94742.00;;;;8307142;28;20255;-71
2022/09/27 10:24:54;;;;;;;1.55;1.40;;;;;13.60;94734.00;;;;8271001;28;20329;-70
2022/09/27 10:28:58;;;;;;;1.00;1.00;;;;;14.10;94724.00;;;;8292978;28;20272;-71
2022/09/27 10:33:05;;;;;;;2.47;2.35;;;;;14.60;94710.00;;;;8283157;28;20297;-71
2022/09/27 10:37:17;;;;;;;2.90;2.67;;;;;15.10;94709.00;;;;8286686;28;20571;-70
2022/09/27 10:41:25;;;;;;;3.00;2.38;;;;;15.50;94712.00;;;;8308736;28;20232;-71
2022/09/27 10:45:30;;;;;;;2.65;2.45;;;;;15.50;94713.00;;;;8289010;28;20232;-68
2022/09/27 10:49:37;;;;;;;2.97;2.78;;;;;15.10;94723.00;;;;8305324;28;20256;-70
2022/09/27 10:53:46;;;;;;;6.15;3.90;;;;;14.70;94735.00;;;;8297882;28;20237;-70
2022/09/27 10:57:52;;;;;;;2.83;1.55;;;;;14.60;94744.00;;;;8309800;28;20678;-69
2022/09/27 11:01:55;;;;;;;1.50;1.40;;;;;14.80;94751.00;;;;8303190;28;20315;-69
2022/09/27 11:06:00;;;;;;;4.13;3.72;;;;;15.00;94752.00;;;;8306826;28;20232;-75
2022/09/27 11:10:22;;;;;;;3.55;3.15;;;;;15.30;94756.00;;;;8312956;28;20276;-74
2022/09/27 11:14:27;;;;;;;1.98;1.88;;;;;15.10;94755.00;;;;8308382;28;21104;-77
2022/09/27 11:18:41;;;;;;;1.50;1.40;;;;;15.40;94758.00;;;;8313052;28;20224;-75
2022/09/27 11:23:27;;;;;;;2.97;2.65;;;;;15.90;94750.00;;;;8310638;28;20624;-75
2022/09/27 11:27:42;;;;;;;17.08;8.55;;;;;16.10;94741.00;;;;8288748;28;20222;-75
2022/09/27 11:31:57;;;;;;;3.28;2.03;;;;;15.30;94737.00;;;;8281295;28;20220;-77
2022/09/27 11:36:12;;;;;;;1.20;1.20;;;;;14.70;94745.00;;;;8268250;28;20289;-75
2022/09/27 11:40:27;;;;;;;2.50;1.20;;;;;14.50;94744.00;;;;8273147;28;20226;-73
2022/09/27 11:44:50;;;;;;;1.92;1.83;;;;;13.90;94747.00;;;;8276991;28;20271;-68
2022/09/27 11:49:29;;;;;;;1.98;1.88;;;;;13.50;94738.00;;;;8281517;28;20261;-68
2022/09/27 11:53:59;;;;;;;3.50;2.40;;;;;13.30;94737.00;;;;8282137;28;20827;-69
2022/09/27 11:58:11;;;;;;;2.05;1.95;;;;;13.10;94732.00;;;;8274382;28;20256;-72
2022/09/27 12:02:50;;;;;;;3.33;2.72;;;;;13.20;94729.00;;;;8307034;28;20371;-73
2022/09/27 12:07:00;;;;;;;2.17;1.83;;;;;13.70;94716.00;;;;8244132;28;20225;-74
2022/09/27 12:11:12;;;;;;;1.83;1.10;;;;;14.10;94728.00;;;;8298467;28;21294;-76
2022/09/27 12:15:20;;;;;;;1.30;1.30;;;;;14.20;94720.00;;;;8308807;28;20225;-80
2022/09/27 12:19:26;;;;;;;1.70;1.60;;;;;14.40;94727.00;;;;8301961;28;20279;-77
2022/09/27 12:23:36;;;;;;;1.00;1.00;;;;;14.90;94722.00;;;;8312837;28;20710;-78
2022/09/27 12:27:45;;;;;;;0.85;0.85;;;;;15.50;94721.00;;;;8305270;28;20233;-77
2022/09/27 12:31:57;;;;;;;1.00;1.00;;;;;15.80;94733.00;;;;8305638;28;20837;-76
2022/09/27 12:36:06;;;;;;;1.33;1.33;;;;;15.90;94721.00;;;;8309072;28;20225;-74
2022/09/27 12:40:17;;;;;;;2.08;1.52;;;;;15.80;94727.00;;;;8299362;28;20237;-74
2022/09/27 12:44:20;;;;;;;1.92;1.50;;;;;16.10;94707.00;;;;8310166;28;20236;-76
2022/09/27 12:48:37;;;;;;;2.95;2.13;;;;;16.30;94722.00;;;;8306697;28;20255;-76
2022/09/27 12:52:45;;;;;;;1.85;1.75;;;;;16.50;94718.00;;;;8286321;28;20230;-76
2022/09/27 12:56:57;;;;;;;2.65;1.40;;;;;16.30;94741.00;;;;8276316;28;20221;-76
2022/09/27 13:01:09;;;;;;;0.77;0.77;;;;;15.40;94774.00;;;;8308356;28;20532;-76
2022/09/27 13:05:43;;;;;;;0.63;0.63;;;;;14.20;94770.00;;;;8273010;28;20222;-69
2022/09/27 13:10:16;;;;;;;0.70;0.70;;;;;12.80;94751.00;;;;8254155;28;20279;-68
2022/09/27 13:14:22;;;;;;;2.17;1.00;;;;;12.10;94754.00;;;;8277366;28;20252;-68
2022/09/27 13:18:31;;;;;;;1.00;1.00;;;;;12.00;94762.00;;;;8301713;28;20232;-68
2022/09/27 13:22:40;;;;;;;2.00;1.90;;;;;12.00;94766.00;;;;8301737;28;21808;-68
2022/09/27 13:26:47;;;;;;;2.00;1.90;;;;;12.00;94755.00;;;;8293542;28;20224;-68
2022/09/27 13:30:50;;;;;;;5.95;1.67;;;;;12.00;94746.00;;;;8310752;28;20226;-68
2022/09/27 13:34:55;;;;;;;4.32;2.42;;;;;12.10;94749.00;;;;8308372;28;20286;-71
2022/09/27 13:39:18;;;;;;;2.47;1.90;;;;;12.00;94748.00;;;;8301882;28;20239;-72
2022/09/27 13:43:40;;;;;;;1.45;1.35;;;;;12.10;94755.00;;;;8300070;28;20731;-71
2022/09/27 13:47:47;;;;;;;1.60;1.50;;;;;12.20;94757.00;;;;8296030;28;20232;-73
2022/09/27 13:51:55;;;;;;;1.15;1.15;;;;;12.40;94755.00;;;;8309980;28;20228;-72
2022/09/27 13:56:00;;;;;;;1.92;1.83;;;;;12.70;94744.00;;;;8314421;28;20233;-72
2022/09/27 14:00:07;;;;;;;1.30;1.30;;;;;12.90;94761.00;;;;8307891;28;20248;-71
2022/09/27 14:04:18;;;;;;;1.70;1.60;;;;;12.90;94770.00;;;;8305858;28;20361;-70
2022/09/27 14:08:28;;;;;;;2.72;2.40;;;;;12.70;94774.00;;;;8309674;28;20222;-68
2022/09/27 14:12:37;;;;;;;1.77;1.67;;;;;12.60;94774.00;;;;8307066;28;20290;-68
2022/09/27 14:16:45;;;;;;;3.42;1.70;;;;;12.80;94764.00;;;;8280755;28;20221;-70
2022/09/27 14:20:51;;;;;;;1.80;1.63;;;;;12.90;94769.00;;;;8276921;28;20242;-71
2022/09/27 14:24:56;;;;;;;1.42;1.42;;;;;12.90;94775.00;;;;8283211;28;20586;-71
2022/09/27 14:29:00;;;;;;;3.78;1.58;;;;;13.00;94773.00;;;;8326481;28;20259;-71
2022/09/27 14:33:04;;;;;;;1.63;1.52;;;;;13.10;94786.00;;;;8326668;28;20593;-70
2022/09/27 14:37:25;;;;;;;1.80;1.70;;;;;13.20;94783.00;;;;8293884;28;20224;-72
2022/09/27 14:41:35;;;;;;;1.98;1.75;;;;;13.40;94777.00;;;;8299451;28;20273;-71
2022/09/27 14:45:40;;;;;;;2.45;1.67;;;;;13.70;94784.00;;;;8300160;28;20220;-71
2022/09/27 14:49:47;;;;;;;3.20;1.70;;;;;14.00;94772.00;;;;8301022;28;20230;-71
2022/09/27 14:53:55;;;;;;;1.67;1.52;;;;;14.10;94780.00;;;;8301003;28;20271;-71
2022/09/27 14:58:01;;;;;;;2.15;1.85;;;;;14.10;94779.00;;;;8300866;28;20543;-71
2022/09/27 15:02:17;;;;;;;1.42;1.33;;;;;13.80;94777.00;;;;8299567;28;20225;-70
2022/09/27 15:06:21;;;;;;;1.50;1.40;;;;;13.70;94791.00;;;;8302057;28;20275;-70
2022/09/27 15:10:26;;;;;;;1.30;1.20;;;;;13.20;94785.00;;;;8300266;28;20237;-71
2022/09/27 15:14:32;;;;;;;1.75;1.30;;;;;13.00;94800.00;;;;8300547;28;20231;-70
2022/09/27 15:18:42;;;;;;;2.03;1.40;;;;;12.20;94789.00;;;;8300061;28;20228;-66
2022/09/27 15:22:47;;;;;;;2.47;1.50;;;;;11.50;94796.00;;;;8299833;28;20221;-67
2022/09/27 15:26:51;;;;;;;1.50;1.45;;;;;11.30;94790.00;;;;8299569;28;20228;-67
2022/09/27 15:30:55;;;;;;;1.77;1.67;;;;;11.40;94785.00;;;;8298834;28;20237;-67
2022/09/27 15:35:07;;;;;;;1.63;1.52;;;;;11.50;94792.00;;;;8299587;28;20233;-68
2022/09/27 15:39:18;;;;;;;5.97;1.45;;;;;11.50;94795.00;;;;8298823;28;20548;-68
2022/09/27 15:43:23;;;;;;;1.65;1.55;;;;;11.40;94800.00;;;;8299670;28;20675;-68
2022/09/27 15:48:05;;;;;;;2.65;1.48;;;;;11.30;94796.00;;;;8299246;28;20226;-69
2022/09/27 15:52:40;;;;;;;1.20;1.20;;;;;11.30;94817.00;;;;8198527;29;20223;-69
2022/09/27 15:56:45;;;;;;;1.50;1.30;;;;;11.30;94804.00;;;;8182595;29;20235;-69
2022/09/27 16:00:52;;;;;;;1.63;1.27;;;;;11.30;94801.00;;;;8196642;29;20669;-71
2022/09/27 16:04:55;;;;;;;1.67;1.58;;;;;11.40;94812.00;;;;8198081;28;20236;-71
2022/09/27 16:09:00;;;;;;;2.95;1.63;;;;;11.40;94811.00;;;;8198251;29;20278;-70
2022/09/27 16:13:03;;;;;;;5.88;2.15;;;;;11.40;94812.00;;;;8197619;29;20219;-71
2022/09/27 16:17:06;;;;;;;1.92;1.80;;;;;11.10;94802.00;;;;8197740;29;20230;-74
2022/09/27 16:21:10;;;;;;;2.85;2.28;;;;;11.00;94810.00;;;;8188762;29;20228;-74
2022/09/27 16:25:14;;;;;;;1.88;1.77;;;;;10.90;94811.00;;;;8244410;28;20259;-74
2022/09/27 16:29:17;;;;;;;1.80;1.70;;;;;10.90;94805.00;;;;8330281;28;20221;-74
2022/09/27 16:33:21;;;;;;;2.67;1.60;;;;;10.90;94807.00;;;;8330495;28;20233;-74
2022/09/27 16:37:24;;;;;;;1.80;1.70;;;;;10.90;94796.00;;;;8330455;28;20675;-74
2022/09/27 16:41:28;;;;;;;2.50;2.30;;;;;10.90;94810.00;;;;8330174;28;20229;-75
2022/09/27 16:45:32;;;;;;;2.35;1.80;;;;;10.80;94819.00;;;;8329665;28;20274;-75
2022/09/27 16:53:56;;;;;;;1.40;1.40;;;;;10.70;94826.00;;;;8294836;28;20513;-74
2022/09/27 16:58:02;;;;;;;1.65;1.52;;;;;10.70;94831.00;;;;8294225;28;20567;-76
2022/09/27 17:02:06;;;;;;;2.00;1.77;;;;;10.60;94826.00;;;;8293927;28;20248;-75
2022/09/27 17:06:09;;;;;;;2.33;2.00;;;;;10.50;94821.00;;;;8295584;28;20583;-71
2022/09/27 17:10:14;;;;;;;2.65;2.03;;;;;10.40;94817.00;;;;8298898;28;20229;-73
2022/09/27 17:14:19;;;;;;;4.68;1.50;;;;;10.30;94829.00;;;;8294052;28;20614;-69
2022/09/27 17:18:22;;;;;;;2.15;1.70;;;;;10.20;94814.00;;;;8295507;28;20221;-68
2022/09/27 17:22:25;;;;;;;5.25;1.80;;;;;10.20;94807.00;;;;8296432;28;20556;-69
2022/09/27 17:26:30;;;;;;;1.83;1.40;;;;;10.20;94810.00;;;;8296234;28;20653;-70
2022/09/27 17:30:35;;;;;;;1.75;1.63;;;;;10.10;94818.00;;;;8295734;28;20273;-71
2022/09/27 17:34:42;;;;;;;2.28;2.08;;;;;10.20;94822.00;;;;8295827;28;20219;-71
2022/09/27 17:38:47;;;;;;;1.98;1.73;;;;;10.10;94821.00;;;;8295663;28;20230;-71
2022/09/27 17:42:51;;;;;;;1.40;1.30;;;;;10.10;94821.00;;;;8296099;28;20667;-70
2022/09/27 17:51:13;;;;;;;3.20;1.80;;;;;10.00;94818.00;;;;8328807;28;20225;-71
2022/09/27 17:55:16;;;;;;;2.10;1.90;;;;;10.10;94828.00;;;;8328477;28;20299;-71
2022/09/27 17:59:20;;;;;;;1.80;1.60;;;;;10.00;94829.00;;;;8328549;28;20237;-70
2022/09/27 18:03:25;;;;;;;1.52;1.50;;;;;10.00;94827.00;;;;8325332;28;20221;-69
2022/09/27 18:07:28;;;;;;;1.50;1.40;;;;;10.00;94827.00;;;;8327982;28;20229;-69
2022/09/27 18:11:32;;;;;;;1.63;1.52;;;;;10.00;94837.00;;;;8329763;28;20224;-69
2022/09/27 18:15:36;;;;;;;1.52;1.42;;;;;10.00;94836.00;;;;8335309;28;20373;-68
2022/09/27 18:19:40;;;;;;;4.43;2.22;;;;;9.90;94837.00;;;;8334886;28;20271;-70
2022/09/27 18:23:44;;;;;;;2.10;2.00;;;;;9.80;94836.00;;;;8334675;28;20225;-76
2022/09/27 18:27:50;;;;;;;2.10;1.98;;;;;9.70;94841.00;;;;8332036;28;20313;-76
2022/09/27 18:31:53;;;;;;;2.20;1.73;;;;;9.70;94848.00;;;;8333556;28;20233;-74
2022/09/27 18:36:02;;;;;;;1.83;1.55;;;;;9.60;94846.00;;;;8333334;28;20265;-74
2022/09/27 18:40:06;;;;;;;9.73;8.50;;;;;9.40;94837.00;;;;8332044;28;20240;-72
2022/09/27 18:44:12;;;;;;;21.57;13.30;;;;;9.30;94849.00;;;;8333038;28;20234;-71
2022/09/27 18:48:16;;;;;;;33.92;19.25;;;;;9.30;94848.00;;;;8333939;28;20685;-71
2022/09/27 18:52:20;;;;;;;576.20;315.40;;;;;9.30;94860.00;;;;8333560;28;20217;-70
2022/09/27 18:56:24;;;;;;;267.85;146.55;;;;;9.30;94860.00;;;;8333814;28;20674;-70
2022/09/27 19:00:28;;;;;;;810.80;386.45;;;;;9.40;94860.00;;;;8333698;28;20313;-69
2022/09/27 19:04:31;;;;;;;300.55;188.52;;;;;9.50;94852.00;;;;8333776;28;20221;-70
2022/09/27 19:08:35;;;;;;;216.55;183.98;;;;;9.50;94859.00;;;;8334057;28;20221;-70
2022/09/27 19:12:39;;;;;;;1536.40;802.13;;;;;9.50;94855.00;;;;8332833;28;20221;-70
2022/09/27 19:16:43;;;;;;;500.77;301.27;;;;;9.50;94866.00;;;;8333355;28;20226;-70
2022/09/27 19:20:46;;;;;;;164.87;86.03;;;;;9.60;94861.00;;;;8332728;28;20697;-72
2022/09/27 19:24:51;;;;;;;379.25;219.27;;;;;9.60;94861.00;;;;8331774;28;20236;-72
2022/09/27 19:28:54;;;;;;;231.97;131.10;;;;;9.60;94857.00;;;;8332652;28;20221;-71
2022/09/27 19:32:57;;;;;;;128.87;95.27;;;;;9.60;94864.00;;;;8331491;28;20589;-71
2022/09/27 19:37:01;;;;;;;54.67;38.05;;;;;9.60;94871.00;;;;8331899;28;20229;-71
2022/09/27 19:41:07;;;;;;;192.32;126.00;;;;;9.60;94866.00;;;;8331774;28;20222;-71
2022/09/27 19:45:11;;;;;;;46.43;30.10;;;;;9.70;94866.00;;;;8332562;28;20229;-73
2022/09/27 19:49:14;;;;;;;18.52;12.10;;;;;9.70;94870.00;;;;8330875;28;20217;-71
2022/09/27 19:53:17;;;;;;;179.70;105.72;;;;;9.70;94855.00;;;;8330912;28;20221;-71
2022/09/27 19:57:21;;;;;;;150.88;87.47;;;;;9.70;94865.00;;;;8298350;28;20225;-73
2022/09/27 20:01:25;;;;;;;17.37;11.40;;;;;9.80;94872.00;;;;8297870;28;20238;-74
2022/09/27 20:05:29;;;;;;;32.38;25.50;;;;;9.80;94873.00;;;;8298750;28;20305;-71
2022/09/27 20:09:32;;;;;;;13.80;11.25;;;;;9.80;94870.00;;;;8298414;28;20756;-72
2022/09/27 20:13:37;;;;;;;203.23;144.70;;;;;9.80;94867.00;;;;8297885;28;20583;-71
2022/09/27 20:17:41;;;;;;;59.07;46.30;;;;;9.70;94871.00;;;;8298463;28;20260;-71
2022/09/27 20:21:44;;;;;;;9.73;7.40;;;;;9.70;94883.00;;;;8298309;28;20310;-71
2022/09/27 20:25:47;;;;;;;44.77;27.50;;;;;9.70;94873.00;;;;8297888;28;20214;-71
2022/09/27 20:29:52;;;;;;;135.27;85.47;;;;;9.70;94868.00;;;;8297295;28;20257;-71
2022/09/27 20:33:56;;;;;;;26.90;17.00;;;;;9.60;94868.00;;;;8330744;28;20220;-71
2022/09/27 20:37:59;;;;;;;14.27;8.30;;;;;9.60;94872.00;;;;8329284;28;20225;-72
2022/09/27 20:42:02;;;;;;;6.70;3.60;;;;;9.60;94866.00;;;;8329632;28;20229;-73
2022/09/27 20:46:08;;;;;;;7.00;4.60;;;;;9.60;94865.00;;;;8329421;28;20229;-71
2022/09/27 20:50:12;;;;;;;8.25;6.10;;;;;9.60;94859.00;;;;8329813;28;20309;-72
2022/09/27 20:54:15;;;;;;;5.30;4.60;;;;;9.60;94853.00;;;;8329162;28;20225;-72